createdAt,value
2023-06-04T00:00:03.228Z,10.7
2023-06-04T00:15:02.681Z,10.6
2023-06-04T00:30:03.139Z,9.9
2023-06-04T00:45:02.633Z,9.3
2023-06-04T01:00:02.996Z,8.8
2023-06-04T01:15:02.631Z,8.4
2023-06-04T01:30:02.904Z,8.0
2023-06-04T01:45:02.304Z,7.6
2023-06-04T02:00:02.765Z,7.3
2023-06-04T02:15:03.218Z,7.2
2023-06-04T02:30:02.645Z,7.1
2023-06-04T02:45:03.059Z,6.8
2023-06-04T03:00:02.643Z,6.6
2023-06-04T03:15:02.989Z,6.3
2023-06-04T03:30:02.404Z,6.0
2023-06-04T03:45:02.841Z,6.0
2023-06-04T04:00:02.301Z,6.1
2023-06-04T04:15:02.707Z,6.9
2023-06-04T04:30:02.207Z,9.0
2023-06-04T04:45:02.679Z,10.8
2023-06-04T05:00:03.034Z,12.2
2023-06-04T05:15:02.669Z,12.2
2023-06-04T05:30:02.916Z,11.6
2023-06-04T05:45:02.352Z,11.9
2023-06-04T06:00:02.800Z,14.0
2023-06-04T06:15:03.240Z,15.3
2023-06-04T06:30:02.711Z,16.6
2023-06-04T06:45:03.137Z,18.2
2023-06-04T07:00:02.693Z,19.8
2023-06-04T07:15:03.028Z,21.2
2023-06-04T07:30:02.471Z,22.3
2023-06-04T07:45:02.891Z,22.7
2023-06-04T08:00:02.333Z,22.4
2023-06-04T08:15:02.774Z,22.7
2023-06-04T08:30:02.191Z,22.7
2023-06-04T08:45:02.709Z,22.9
2023-06-04T09:00:03.053Z,23.2
2023-06-04T09:15:02.745Z,23.9
2023-06-04T09:30:01.949Z,24.9
2023-06-04T09:45:02.421Z,24.6
2023-06-04T10:00:02.857Z,24.4
2023-06-04T10:15:02.267Z,24.8
2023-06-04T10:30:02.722Z,24.7
2023-06-04T10:45:03.161Z,25.0
2023-06-04T11:00:02.746Z,25.4
2023-06-04T11:15:03.036Z,25.0
2023-06-04T11:30:02.458Z,25.0
2023-06-04T11:45:02.932Z,24.9
2023-06-04T12:00:02.378Z,25.6
2023-06-04T12:15:02.882Z,26.2
2023-06-04T12:30:02.288Z,26.6
2023-06-04T12:45:02.771Z,26.1
2023-06-04T13:00:03.132Z,25.3
2023-06-04T13:15:02.764Z,25.2
2023-06-04T13:30:02.031Z,25.4
2023-06-04T13:45:02.436Z,25.5
2023-06-04T14:00:02.857Z,25.5
2023-06-04T14:15:02.298Z,25.2
2023-06-04T14:30:02.781Z,26.0
2023-06-04T14:45:03.172Z,25.8
2023-06-04T15:00:02.793Z,25.8
2023-06-04T15:15:03.078Z,25.5
2023-06-04T15:30:02.508Z,25.0
2023-06-04T15:45:02.940Z,25.2
2023-06-04T16:00:02.389Z,24.9
2023-06-04T16:15:02.825Z,24.6
2023-06-04T16:30:02.240Z,24.5
2023-06-04T16:45:02.780Z,23.9
2023-06-04T17:00:17.087Z,23.8
2023-06-04T17:15:02.801Z,23.3
2023-06-04T17:30:02.008Z,22.3
2023-06-04T17:45:02.506Z,21.3
2023-06-04T18:00:02.939Z,20.6
2023-06-04T18:15:02.352Z,20.2
2023-06-04T18:30:02.818Z,19.6
2023-06-04T18:45:02.239Z,19.1
2023-06-04T19:00:02.828Z,18.5
2023-06-04T19:15:03.094Z,18.1
2023-06-04T19:30:02.591Z,17.5
2023-06-04T19:45:02.996Z,17.0
2023-06-04T20:00:02.419Z,16.4
2023-06-04T20:15:02.858Z,15.8
2023-06-04T20:30:02.314Z,15.2
2023-06-04T20:45:02.820Z,14.7
2023-06-04T21:00:02.191Z,14.2
2023-06-04T21:15:02.816Z,13.7
2023-06-04T21:30:02.184Z,13.2
2023-06-04T21:45:02.526Z,12.7
2023-06-04T22:15:03.428Z,12.1
2023-06-04T22:30:02.856Z,11.7
2023-06-04T22:45:02.304Z,11.3
2023-06-04T23:00:02.924Z,10.9
2023-06-04T23:15:02.189Z,10.4
2023-06-04T23:30:02.911Z,10.0
2023-06-04T23:45:02.085Z,10.1
